Time;durP1;ratioP1;P1;durP2;ratioP2;P2;SDS_P1;SDS_P2;PMS_P1;PMS_P2;Temp;Humidity;BMP_temperature;BMP_pressure;BME280_temperature;BME280_humidity;BME280_pressure;Samples;Min_cycle;Max_cycle;Signal;HPM_P1;HPM_P2
2024/03/30 00:01:58;;;;;;;5.90;2.55;;;24.50;48.60;;;;;;6155771;28;80335;-59
2024/03/30 00:04:59;;;;;;;5.35;2.53;;;24.40;48.50;;;;;;6158878;28;80785;-61
2024/03/30 00:07:59;;;;;;;5.65;2.58;;;24.40;48.70;;;;;;6162122;28;80116;-60
2024/03/30 00:11:00;;;;;;;7.03;3.00;;;24.50;48.80;;;;;;6154082;28;80697;-59
2024/03/30 00:14:01;;;;;;;3.63;2.38;;;24.40;48.90;;;;;;6154396;28;80930;-57
2024/03/30 00:17:01;;;;;;;7.00;2.80;;;24.40;48.80;;;;;;6154000;28;80617;-56
2024/03/30 00:20:02;;;;;;;4.65;2.75;;;24.40;48.80;;;;;;6153657;28;80565;-56
2024/03/30 00:23:02;;;;;;;9.07;2.45;;;24.40;48.70;;;;;;6154489;28;81432;-56
2024/03/30 00:26:03;;;;;;;5.75;2.47;;;24.50;48.60;;;;;;6153808;28;80961;-55
2024/03/30 00:29:03;;;;;;;4.68;2.42;;;24.40;48.70;;;;;;6153548;28;81089;-56
2024/03/30 00:32:04;;;;;;;6.15;2.67;;;24.40;48.80;;;;;;6163338;28;80949;-58
2024/03/30 00:35:04;;;;;;;4.57;2.65;;;24.50;48.80;;;;;;6154185;28;80884;-58
2024/03/30 00:38:06;;;;;;;4.38;2.75;;;24.40;48.90;;;;;;6154559;28;81974;-58
2024/03/30 00:41:07;;;;;;;6.45;2.55;;;24.40;48.90;;;;;;6153460;28;80645;-58
2024/03/30 00:44:07;;;;;;;6.20;2.88;;;24.40;48.90;;;;;;6152855;28;81204;-59
2024/03/30 00:47:08;;;;;;;6.97;3.35;;;24.40;48.90;;;;;;6153903;28;81012;-59
2024/03/30 00:50:08;;;;;;;6.32;2.80;;;24.40;48.80;;;;;;6152778;28;80428;-58
2024/03/30 00:53:09;;;;;;;4.28;2.45;;;24.40;48.80;;;;;;6153962;28;87571;-56
2024/03/30 00:56:09;;;;;;;6.88;3.25;;;24.40;48.70;;;;;;6153320;28;80435;-56
2024/03/30 00:59:10;;;;;;;4.90;3.00;;;24.40;48.50;;;;;;6153111;28;80253;-56
2024/03/30 01:02:11;;;;;;;5.20;2.75;;;24.40;48.60;;;;;;6152815;28;80405;-57
2024/03/30 01:05:12;;;;;;;5.85;3.05;;;24.40;48.50;;;;;;6158576;28;81381;-54
2024/03/30 01:08:12;;;;;;;5.00;2.90;;;24.40;48.50;;;;;;6159332;28;81091;-55
2024/03/30 01:11:13;;;;;;;5.18;2.75;;;24.40;48.50;;;;;;6153060;28;80892;-56
2024/03/30 01:14:15;;;;;;;4.90;3.08;;;24.40;48.50;;;;;;6153063;28;80545;-55
2024/03/30 01:17:17;;;;;;;4.45;2.75;;;24.40;48.50;;;;;;6153449;28;81143;-58
2024/03/30 01:20:19;;;;;;;5.78;2.70;;;24.40;48.50;;;;;;6153193;28;81334;-54
2024/03/30 01:23:19;;;;;;;3.92;2.53;;;24.40;48.50;;;;;;6153025;28;81108;-56
2024/03/30 01:26:20;;;;;;;6.72;3.20;;;24.40;48.50;;;;;;6156046;28;82312;-59
2024/03/30 01:29:20;;;;;;;7.05;3.25;;;24.40;48.50;;;;;;6151008;28;83860;-60
2024/03/30 01:32:21;;;;;;;5.35;3.13;;;24.40;48.50;;;;;;6162440;28;81278;-60
2024/03/30 01:35:21;;;;;;;4.60;2.92;;;24.40;48.40;;;;;;6152624;28;80292;-61
2024/03/30 01:38:22;;;;;;;6.97;3.17;;;24.40;48.40;;;;;;6153435;28;80479;-60
2024/03/30 01:41:22;;;;;;;5.97;3.28;;;24.40;48.50;;;;;;6152940;28;80786;-60
2024/03/30 01:44:23;;;;;;;6.35;3.53;;;24.40;48.40;;;;;;6152198;28;81082;-60
2024/03/30 01:47:23;;;;;;;5.32;3.22;;;24.30;48.40;;;;;;6152275;28;80927;-61
2024/03/30 01:50:24;;;;;;;6.75;3.97;;;24.30;48.30;;;;;;6152166;28;82141;-61
2024/03/30 01:53:25;;;;;;;5.35;3.08;;;24.30;48.40;;;;;;6153107;28;81915;-61
2024/03/30 01:56:25;;;;;;;7.80;3.75;;;24.30;48.40;;;;;;6152853;28;80054;-60
2024/03/30 01:59:26;;;;;;;5.53;3.33;;;24.30;48.50;;;;;;6152036;28;80490;-60
2024/03/30 02:02:26;;;;;;;6.85;3.22;;;24.40;48.90;;;;;;6152615;28;80814;-57
2024/03/30 02:05:27;;;;;;;5.28;3.40;;;24.30;48.70;;;;;;6160435;28;80387;-57
2024/03/30 02:08:27;;;;;;;7.38;3.47;;;24.40;48.70;;;;;;6157158;28;80471;-58
2024/03/30 02:11:28;;;;;;;7.78;3.58;;;24.40;48.70;;;;;;6153005;28;80733;-59
2024/03/30 02:14:28;;;;;;;7.20;3.03;;;24.40;48.70;;;;;;6151927;28;80734;-56
2024/03/30 02:17:29;;;;;;;4.60;2.80;;;24.40;48.60;;;;;;6151723;28;81180;-57
2024/03/30 02:20:29;;;;;;;4.60;2.85;;;24.30;48.70;;;;;;6150369;28;80403;-57
2024/03/30 02:23:30;;;;;;;4.63;2.78;;;24.40;48.70;;;;;;6159650;28;81089;-56
2024/03/30 02:26:30;;;;;;;5.95;3.17;;;24.40;48.70;;;;;;6151427;28;80428;-57
2024/03/30 02:29:31;;;;;;;5.78;3.00;;;24.40;48.50;;;;;;6152018;28;80181;-57
2024/03/30 02:32:31;;;;;;;6.65;2.95;;;24.30;48.40;;;;;;6161144;28;80585;-58
2024/03/30 02:35:32;;;;;;;5.15;2.92;;;24.40;48.50;;;;;;6151395;28;80901;-57
2024/03/30 02:38:33;;;;;;;6.03;2.75;;;24.40;48.50;;;;;;6151745;28;80907;-57
2024/03/30 02:41:33;;;;;;;6.50;3.28;;;24.30;48.40;;;;;;6151453;28;81068;-59
2024/03/30 02:44:34;;;;;;;5.53;2.60;;;24.40;48.50;;;;;;6151214;28;82017;-59
2024/03/30 02:47:34;;;;;;;7.38;2.70;;;24.40;49.10;;;;;;6151682;28;80550;-58
2024/03/30 02:50:35;;;;;;;6.72;3.28;;;24.40;48.40;;;;;;6150987;28;80717;-58
2024/03/30 02:53:35;;;;;;;5.88;2.80;;;24.30;48.40;;;;;;6151671;28;81116;-59
2024/03/30 02:56:36;;;;;;;5.05;2.78;;;24.30;48.30;;;;;;6151210;28;80578;-59
2024/03/30 02:59:36;;;;;;;6.32;3.17;;;24.30;48.40;;;;;;6150942;28;80394;-55
2024/03/30 03:02:37;;;;;;;5.88;2.30;;;24.40;48.50;;;;;;6151846;28;80862;-58
2024/03/30 03:05:37;;;;;;;8.38;2.75;;;24.30;48.40;;;;;;6160708;28;80669;-55
2024/03/30 03:08:38;;;;;;;6.03;2.65;;;24.40;48.40;;;;;;6153239;28;81349;-55
2024/03/30 03:11:38;;;;;;;7.03;2.90;;;24.30;48.40;;;;;;6151434;28;80965;-55
2024/03/30 03:14:39;;;;;;;7.30;2.58;;;24.40;48.40;;;;;;6150592;28;82885;-55
2024/03/30 03:17:39;;;;;;;7.10;3.17;;;24.40;48.30;;;;;;6151993;28;81119;-58
2024/03/30 03:20:40;;;;;;;7.57;3.42;;;24.30;48.20;;;;;;6161680;28;80990;-58
2024/03/30 03:23:42;;;;;;;6.78;2.85;;;24.30;48.20;;;;;;6151195;28;80430;-58
2024/03/30 03:26:43;;;;;;;7.68;2.58;;;24.30;48.10;;;;;;6150582;28;81210;-58
2024/03/30 03:29:43;;;;;;;6.32;2.88;;;24.40;48.10;;;;;;6150721;28;80484;-57
2024/03/30 03:32:47;;;;;;;6.68;2.80;;;24.30;48.10;;;;;;6163519;28;80986;-59
2024/03/30 03:35:47;;;;;;;5.80;2.80;;;24.30;48.10;;;;;;6154706;28;80368;-56
2024/03/30 03:38:48;;;;;;;6.03;2.50;;;24.40;48.20;;;;;;6155022;28;80998;-57
2024/03/30 03:41:48;;;;;;;5.70;2.80;;;24.30;48.20;;;;;;6155501;28;80286;-55
2024/03/30 03:44:49;;;;;;;9.30;2.58;;;24.30;48.30;;;;;;6154998;28;80956;-56
2024/03/30 03:47:50;;;;;;;7.22;2.80;;;24.40;48.20;;;;;;6154251;28;81698;-57
2024/03/30 03:50:50;;;;;;;7.07;2.65;;;24.30;48.00;;;;;;6154744;28;80817;-55
2024/03/30 03:53:51;;;;;;;7.28;2.60;;;24.30;48.00;;;;;;6154939;28;80934;-56
2024/03/30 03:56:51;;;;;;;6.75;3.03;;;24.30;48.00;;;;;;6155087;28;80906;-58
2024/03/30 03:59:52;;;;;;;6.13;2.70;;;24.30;47.90;;;;;;6154763;28;80619;-56
2024/03/30 04:02:52;;;;;;;6.10;2.67;;;24.30;47.90;;;;;;6154984;28;81100;-59
2024/03/30 04:05:53;;;;;;;8.85;3.00;;;24.30;48.10;;;;;;6166321;28;81155;-59
2024/03/30 04:08:53;;;;;;;11.88;3.47;;;24.30;48.30;;;;;;6154970;28;80615;-59
2024/03/30 04:11:54;;;;;;;7.40;3.15;;;24.30;47.90;;;;;;6154383;28;80711;-56
2024/03/30 04:14:54;;;;;;;4.90;2.90;;;24.30;47.80;;;;;;6156230;28;81451;-54
2024/03/30 04:17:55;;;;;;;8.18;3.05;;;24.30;47.80;;;;;;6154202;28;80395;-55
2024/03/30 04:20:55;;;;;;;4.82;2.83;;;24.30;47.80;;;;;;6153916;28;80496;-54
2024/03/30 04:23:56;;;;;;;7.50;2.90;;;24.30;47.80;;;;;;6154257;28;80845;-54
2024/03/30 04:26:56;;;;;;;5.78;2.78;;;24.30;47.90;;;;;;6154559;28;80411;-53
2024/03/30 04:29:57;;;;;;;7.07;2.88;;;24.30;48.00;;;;;;6153864;28;80640;-53
2024/03/30 04:32:57;;;;;;;5.82;3.08;;;24.30;47.90;;;;;;6162715;28;81946;-55
2024/03/30 04:35:58;;;;;;;5.68;2.90;;;24.30;47.50;;;;;;6153516;28;80510;-55
2024/03/30 04:38:58;;;;;;;6.32;3.10;;;24.30;47.70;;;;;;6153567;28;80428;-56
2024/03/30 04:41:59;;;;;;;4.82;2.83;;;24.40;47.80;;;;;;6153690;28;80355;-54
2024/03/30 04:45:00;;;;;;;8.60;3.47;;;24.40;47.80;;;;;;6153223;28;84323;-53
2024/03/30 04:48:00;;;;;;;5.75;2.92;;;24.40;47.70;;;;;;6156364;28;84308;-61
2024/03/30 04:51:02;;;;;;;5.22;2.80;;;24.40;47.70;;;;;;6168585;28;80379;-56
2024/03/30 04:54:02;;;;;;;8.93;3.45;;;24.50;47.70;;;;;;6170833;28;81012;-57
2024/03/30 04:57:03;;;;;;;6.28;2.97;;;24.50;47.70;;;;;;6166803;28;80755;-55
2024/03/30 05:00:03;;;;;;;6.25;3.10;;;24.50;47.70;;;;;;6157864;28;80680;-53
2024/03/30 05:03:04;;;;;;;10.77;2.78;;;24.60;47.80;;;;;;6168736;28;81380;-55
2024/03/30 05:06:04;;;;;;;8.70;3.30;;;24.60;47.80;;;;;;6165601;28;81060;-58
2024/03/30 05:09:05;;;;;;;9.45;3.30;;;24.60;47.70;;;;;;6159929;28;80985;-51
2024/03/30 05:12:05;;;;;;;9.23;3.22;;;24.60;47.80;;;;;;6157125;28;81256;-51
2024/03/30 05:15:06;;;;;;;10.07;3.13;;;24.70;47.80;;;;;;6159980;28;80661;-50
2024/03/30 05:18:06;;;;;;;5.47;2.50;;;24.60;47.70;;;;;;6159417;28;81097;-53
2024/03/30 05:21:07;;;;;;;5.82;2.78;;;24.70;47.70;;;;;;6165371;28;82628;-52
2024/03/30 05:24:07;;;;;;;11.27;3.00;;;24.70;47.70;;;;;;6160706;28;80853;-52
2024/03/30 05:27:08;;;;;;;7.22;3.17;;;24.60;47.80;;;;;;6159886;28;80376;-53
2024/03/30 05:30:08;;;;;;;5.97;3.20;;;24.60;47.90;;;;;;6168501;28;81020;-54
2024/03/30 05:33:09;;;;;;;6.47;2.97;;;24.60;47.90;;;;;;6160863;28;86601;-54
2024/03/30 05:36:09;;;;;;;5.93;3.10;;;24.60;47.90;;;;;;6154307;28;81172;-54
2024/03/30 05:39:10;;;;;;;6.10;3.67;;;24.60;47.90;;;;;;6171165;28;81104;-52
2024/03/30 05:42:13;;;;;;;7.47;2.97;;;24.60;47.80;;;;;;6159444;28;80223;-53
2024/03/30 05:45:13;;;;;;;6.82;3.08;;;24.60;47.90;;;;;;6152714;28;80885;-66
2024/03/30 05:48:14;;;;;;;8.48;3.45;;;24.60;47.90;;;;;;6152129;28;80805;-66
2024/03/30 05:51:14;;;;;;;5.70;2.83;;;24.60;47.90;;;;;;6151782;28;80796;-65
2024/03/30 05:54:15;;;;;;;7.72;3.47;;;24.60;47.80;;;;;;6152266;28;80584;-64
2024/03/30 05:57:15;;;;;;;5.70;2.97;;;24.60;47.90;;;;;;6151990;28;81014;-65
2024/03/30 06:00:16;;;;;;;7.03;2.92;;;24.60;47.90;;;;;;6156992;28;80804;-65
2024/03/30 06:03:16;;;;;;;4.00;2.58;;;24.70;48.10;;;;;;6152448;28;81069;-63
2024/03/30 06:06:17;;;;;;;7.38;3.58;;;24.70;48.30;;;;;;6170120;28;83147;-64
2024/03/30 06:09:18;;;;;;;6.15;3.03;;;24.70;48.10;;;;;;6166713;28;80558;-65
2024/03/30 06:12:19;;;;;;;4.88;2.78;;;24.70;48.00;;;;;;6151293;28;80290;-64
2024/03/30 06:15:19;;;;;;;8.70;3.00;;;24.70;48.00;;;;;;6160541;28;81207;-65
2024/03/30 06:18:20;;;;;;;6.70;3.58;;;24.70;47.90;;;;;;6155471;28;80535;-64
2024/03/30 06:21:20;;;;;;;10.70;3.35;;;24.70;47.90;;;;;;6154705;28;80747;-61
2024/03/30 06:24:21;;;;;;;9.00;3.33;;;24.70;48.00;;;;;;6158370;28;80490;-61
2024/03/30 06:27:21;;;;;;;9.00;3.80;;;24.70;48.50;;;;;;6159317;28;81459;-65
2024/03/30 06:30:22;;;;;;;8.60;3.78;;;24.70;49.00;;;;;;6154117;28;80748;-65
2024/03/30 06:33:23;;;;;;;9.35;4.10;;;24.70;49.10;;;;;;6136358;28;80967;-64
2024/03/30 06:36:24;;;;;;;10.18;5.00;;;24.80;49.50;;;;;;6155751;28;81845;-62
2024/03/30 06:39:24;;;;;;;7.72;3.80;;;24.80;49.60;;;;;;6153459;28;81581;-60
2024/03/30 06:45:44;;;;;;;10.30;4.50;;;24.80;49.30;;;;;;6153795;28;82251;-62
2024/03/30 06:48:45;;;;;;;7.85;4.18;;;24.80;49.10;;;;;;6157263;28;81047;-63
2024/03/30 06:51:46;;;;;;;12.60;4.32;;;24.80;49.00;;;;;;6150416;28;80147;-62
2024/03/30 06:54:47;;;;;;;8.52;3.97;;;24.80;48.90;;;;;;6157915;28;80506;-64
2024/03/30 06:57:47;;;;;;;9.85;4.32;;;24.80;49.00;;;;;;6140430;28;82734;-51
2024/03/30 07:00:48;;;;;;;8.80;3.60;;;24.80;49.10;;;;;;6150385;28;80844;-53
2024/03/30 07:03:49;;;;;;;9.27;3.85;;;24.90;49.40;;;;;;6155902;28;80697;-54
2024/03/30 07:06:49;;;;;;;10.82;4.50;;;24.90;49.50;;;;;;6165830;28;81622;-53
2024/03/30 07:09:50;;;;;;;7.60;3.75;;;25.00;49.70;;;;;;6163533;28;86322;-53
2024/03/30 07:12:54;;;;;;;13.73;3.85;;;25.00;49.80;;;;;;6158652;28;80713;-49
2024/03/30 07:15:54;;;;;;;6.00;3.75;;;25.00;49.90;;;;;;6140223;28;81609;-51
2024/03/30 07:18:55;;;;;;;9.45;3.88;;;25.10;50.20;;;;;;6138243;28;83556;-51
2024/03/30 07:21:55;;;;;;;7.80;3.83;;;25.10;50.00;;;;;;6162594;28;80474;-51
2024/03/30 07:24:56;;;;;;;11.73;4.43;;;25.10;49.90;;;;;;6150008;28;80850;-59
2024/03/30 07:27:56;;;;;;;9.40;4.55;;;25.10;49.90;;;;;;6154612;28;80883;-52
2024/03/30 07:31:03;;;;;;;8.32;4.25;;;25.10;49.90;;;;;;6154004;28;82927;-56
2024/03/30 07:34:04;;;;;;;10.50;4.38;;;25.10;49.80;;;;;;6155400;28;80389;-50
2024/03/30 07:37:04;;;;;;;8.70;4.22;;;25.10;49.80;;;;;;6153873;28;81481;-47
2024/03/30 07:40:05;;;;;;;12.32;4.15;;;25.10;49.90;;;;;;6155899;28;82349;-50
2024/03/30 07:43:05;;;;;;;11.23;4.55;;;25.10;49.80;;;;;;6154818;28;81531;-53
2024/03/30 07:46:06;;;;;;;14.98;4.65;;;25.10;49.90;;;;;;6154603;28;81151;-56
2024/03/30 07:49:06;;;;;;;26.75;5.53;;;25.10;49.80;;;;;;6154558;28;83015;-54
2024/03/30 07:52:07;;;;;;;16.15;5.57;;;25.10;49.60;;;;;;6154694;28;80638;-51
2024/03/30 07:55:10;;;;;;;17.40;5.40;;;25.10;49.50;;;;;;6154674;28;80297;-51
2024/03/30 07:58:10;;;;;;;18.23;4.72;;;25.10;49.40;;;;;;6155367;28;80505;-55
2024/03/30 08:01:11;;;;;;;18.90;5.68;;;25.20;49.30;;;;;;6158506;28;80683;-53
2024/03/30 08:04:11;;;;;;;17.40;5.68;;;25.20;49.10;;;;;;6157066;28;82877;-52
2024/03/30 08:07:12;;;;;;;21.08;5.13;;;25.20;48.80;;;;;;6155943;28;80700;-50
2024/03/30 08:10:12;;;;;;;18.15;5.35;;;25.20;48.90;;;;;;6155900;28;80268;-54
2024/03/30 08:13:13;;;;;;;18.92;6.50;;;25.20;48.90;;;;;;6168777;28;80928;-53
2024/03/30 08:16:13;;;;;;;24.40;5.57;;;25.20;48.60;;;;;;6162425;28;80974;-55
2024/03/30 08:19:15;;;;;;;23.92;5.78;;;25.20;48.70;;;;;;6154582;28;81239;-53
2024/03/30 08:22:16;;;;;;;27.08;6.13;;;25.20;48.40;;;;;;6163653;28;81037;-55
2024/03/30 08:25:17;;;;;;;21.30;5.35;;;25.30;48.50;;;;;;6163582;28;80537;-56
2024/03/30 08:28:17;;;;;;;22.05;5.70;;;25.20;48.40;;;;;;6164831;28;80553;-54
2024/03/30 08:31:18;;;;;;;18.98;5.60;;;25.20;48.30;;;;;;6172702;28;80945;-55
2024/03/30 08:34:18;;;;;;;19.95;6.53;;;25.20;47.90;;;;;;6169437;28;80503;-51
2024/03/30 08:37:19;;;;;;;37.15;7.03;;;25.20;47.20;;;;;;6168595;28;81322;-55
2024/03/30 08:40:19;;;;;;;41.55;7.70;;;25.20;46.50;;;;;;6154178;28;81214;-56
2024/03/30 08:43:25;;;;;;;38.17;7.60;;;25.20;45.80;;;;;;6152631;28;80562;-54
2024/03/30 08:46:25;;;;;;;47.03;8.93;;;25.20;45.40;;;;;;6152881;28;85783;-56
2024/03/30 08:49:26;;;;;;;45.65;9.13;;;25.20;44.50;;;;;;6158931;28;80302;-50
2024/03/30 08:52:26;;;;;;;53.80;8.52;;;25.20;44.40;;;;;;6155649;28;80900;-56
2024/03/30 08:55:27;;;;;;;43.83;8.00;;;25.30;44.50;;;;;;6167619;28;80684;-57
2024/03/30 08:58:27;;;;;;;38.90;8.50;;;25.30;44.30;;;;;;6157775;28;80114;-55
2024/03/30 09:01:28;;;;;;;35.88;7.65;;;25.30;44.20;;;;;;6153736;28;80372;-50
2024/03/30 09:04:28;;;;;;;47.70;8.80;;;25.30;44.60;;;;;;6155351;28;80841;-57
2024/03/30 09:07:29;;;;;;;41.13;8.65;;;25.30;44.60;;;;;;6167795;28;80531;-57
2024/03/30 09:10:29;;;;;;;46.75;8.82;;;25.30;45.30;;;;;;6161221;28;81207;-53
2024/03/30 09:13:30;;;;;;;49.58;9.20;;;25.30;45.70;;;;;;6161306;28;80708;-54
2024/03/30 09:16:30;;;;;;;48.03;9.57;;;25.30;45.70;;;;;;6151976;28;81049;-55
2024/03/30 09:19:31;;;;;;;62.70;9.82;;;25.30;46.20;;;;;;6168068;28;80499;-58
2024/03/30 09:22:31;;;;;;;39.28;8.38;;;25.30;45.90;;;;;;6155459;28;80429;-58
2024/03/30 09:25:32;;;;;;;47.30;10.10;;;25.30;46.00;;;;;;6155059;28;80207;-58
2024/03/30 09:28:32;;;;;;;55.90;10.40;;;25.30;46.50;;;;;;6151313;28;83003;-58
2024/03/30 09:31:33;;;;;;;48.65;9.57;;;25.30;46.70;;;;;;6154215;28;83212;-58
2024/03/30 09:34:33;;;;;;;68.28;10.75;;;25.30;45.90;;;;;;6161233;28;82834;-57
2024/03/30 09:37:34;;;;;;;52.83;9.45;;;25.30;45.70;;;;;;6151525;28;83203;-57
2024/03/30 09:40:35;;;;;;;48.72;10.98;;;25.30;46.50;;;;;;6154897;28;82893;-55
2024/03/30 09:43:35;;;;;;;58.45;11.00;;;25.30;46.30;;;;;;6150628;28;84151;-61
2024/03/30 09:46:36;;;;;;;52.45;11.38;;;25.30;46.20;;;;;;6155891;28;83821;-56
2024/03/30 09:49:37;;;;;;;65.32;13.23;;;25.30;46.10;;;;;;6150593;28;83174;-56
2024/03/30 09:52:39;;;;;;;60.97;12.93;;;25.40;44.90;;;;;;6154302;28;83352;-55
2024/03/30 09:55:39;;;;;;;65.72;11.35;;;25.40;44.60;;;;;;6151029;28;83826;-54
2024/03/30 09:58:40;;;;;;;67.63;9.95;;;25.40;44.50;;;;;;6148026;28;83832;-54
2024/03/30 10:01:40;;;;;;;59.25;11.55;;;25.40;45.40;;;;;;6169877;28;82939;-51
2024/03/30 10:04:41;;;;;;;66.28;11.63;;;25.40;44.40;;;;;;6152766;28;84941;-54
2024/03/30 10:07:41;;;;;;;62.80;11.23;;;25.50;44.40;;;;;;6150595;28;83679;-54
2024/03/30 10:10:42;;;;;;;65.68;11.02;;;25.50;44.20;;;;;;6150474;28;82900;-49
2024/03/30 10:13:43;;;;;;;60.15;12.88;;;25.50;43.60;;;;;;6148019;28;82688;-53
2024/03/30 10:16:43;;;;;;;59.65;11.68;;;25.50;43.60;;;;;;6150015;28;83041;-54
2024/03/30 10:19:44;;;;;;;76.50;11.82;;;25.50;41.90;;;;;;6162553;28;83258;-55
2024/03/30 10:22:44;;;;;;;66.47;10.75;;;25.50;42.40;;;;;;6162367;28;83601;-53
2024/03/30 10:25:45;;;;;;;60.53;11.02;;;25.50;41.60;;;;;;6155854;28;83411;-51
2024/03/30 10:28:46;;;;;;;61.60;10.88;;;25.50;42.00;;;;;;6152885;28;83674;-50
2024/03/30 10:31:46;;;;;;;65.20;12.00;;;25.60;41.80;;;;;;6153603;28;83377;-55
2024/03/30 10:34:47;;;;;;;65.25;10.80;;;25.60;41.80;;;;;;6152175;28;83403;-51
2024/03/30 10:37:47;;;;;;;55.10;11.27;;;25.70;42.20;;;;;;6158252;28;83429;-51
2024/03/30 10:40:48;;;;;;;63.08;10.05;;;25.70;41.90;;;;;;6153962;28;82979;-55
2024/03/30 10:43:48;;;;;;;64.78;11.68;;;25.70;41.20;;;;;;6153190;28;85652;-54
2024/03/30 10:46:49;;;;;;;57.42;11.10;;;25.70;40.10;;;;;;6153953;28;83045;-56
2024/03/30 10:49:49;;;;;;;60.30;10.85;;;25.80;40.40;;;;;;6157886;28;84884;-55
2024/03/30 10:52:50;;;;;;;64.70;9.70;;;25.70;40.30;;;;;;6151737;28;85490;-54
2024/03/30 10:55:50;;;;;;;57.88;10.45;;;25.80;40.10;;;;;;6157339;28;83361;-54
2024/03/30 10:58:51;;;;;;;61.03;10.57;;;25.80;40.10;;;;;;6151057;28;83946;-52
2024/03/30 11:01:51;;;;;;;70.93;11.32;;;25.90;40.10;;;;;;6156587;28;82907;-56
2024/03/30 11:04:52;;;;;;;52.85;10.02;;;25.90;41.00;;;;;;6152219;28;86272;-51
2024/03/30 11:07:52;;;;;;;50.67;8.98;;;25.90;41.50;;;;;;6166450;28;85635;-54
2024/03/30 11:10:53;;;;;;;58.63;11.13;;;25.90;40.80;;;;;;6154238;28;82988;-53
2024/03/30 11:13:53;;;;;;;56.78;10.93;;;25.90;41.10;;;;;;6151503;28;83980;-50
2024/03/30 11:16:54;;;;;;;62.67;9.63;;;25.90;41.10;;;;;;6152374;28;89534;-51
2024/03/30 11:19:55;;;;;;;46.97;8.30;;;25.90;40.60;;;;;;6155504;28;82862;-51
2024/03/30 11:22:55;;;;;;;52.53;10.30;;;25.90;41.90;;;;;;6153763;28;81100;-49
2024/03/30 11:25:57;;;;;;;48.70;9.85;;;25.90;41.10;;;;;;6152550;28;83653;-55
2024/03/30 11:28:58;;;;;;;47.40;8.35;;;26.00;40.30;;;;;;6159160;28;81796;-54
2024/03/30 11:31:59;;;;;;;59.78;10.07;;;26.00;38.20;;;;;;6154319;28;80364;-55
2024/03/30 11:35:00;;;;;;;60.13;10.38;;;26.00;37.80;;;;;;6153070;28;83452;-54
2024/03/30 11:38:03;;;;;;;59.10;9.43;;;26.10;37.60;;;;;;6152569;28;84468;-53
2024/03/30 11:41:04;;;;;;;70.00;9.48;;;26.10;34.80;;;;;;6151990;28;81795;-56
2024/03/30 11:44:04;;;;;;;51.00;7.75;;;26.10;32.10;;;;;;6157879;28;82528;-51
2024/03/30 11:47:05;;;;;;;56.17;10.07;;;26.10;30.90;;;;;;6165804;28;81931;-52
2024/03/30 11:50:05;;;;;;;61.10;11.63;;;26.10;31.00;;;;;;6160310;28;84539;-53
2024/03/30 11:53:06;;;;;;;45.78;8.18;;;26.20;31.60;;;;;;6152234;28;85613;-53
2024/03/30 11:56:06;;;;;;;63.85;8.68;;;26.20;30.80;;;;;;6159162;28;83017;-55
2024/03/30 11:59:11;;;;;;;55.13;8.15;;;26.30;31.10;;;;;;6164561;28;84637;-56
2024/03/30 12:02:11;;;;;;;51.42;9.45;;;26.40;30.80;;;;;;6172873;28;80740;-56
2024/03/30 12:05:12;;;;;;;54.33;9.25;;;26.40;30.90;;;;;;6164005;28;80751;-52
2024/03/30 12:08:12;;;;;;;49.28;8.57;;;26.40;31.60;;;;;;6175114;28;81922;-50
2024/03/30 12:11:13;;;;;;;48.28;8.57;;;26.40;31.30;;;;;;6166824;28;80631;-49
2024/03/30 12:14:13;;;;;;;63.90;8.20;;;26.40;31.20;;;;;;6166666;28;81725;-55
2024/03/30 12:17:14;;;;;;;58.35;8.75;;;26.40;31.30;;;;;;6154113;28;80783;-54
2024/03/30 12:20:14;;;;;;;58.25;9.73;;;26.50;31.30;;;;;;6149744;28;82199;-55
2024/03/30 12:23:15;;;;;;;50.60;8.20;;;26.50;31.10;;;;;;6152443;28;81046;-54
2024/03/30 12:26:16;;;;;;;55.22;9.35;;;26.50;31.00;;;;;;6103340;28;85764;-53
2024/03/30 12:29:16;;;;;;;61.33;8.15;;;26.50;31.00;;;;;;6149015;28;83313;-56
2024/03/30 12:32:17;;;;;;;70.05;9.50;;;26.50;31.50;;;;;;6171006;28;80855;-54
2024/03/30 12:35:18;;;;;;;48.97;9.98;;;26.40;31.70;;;;;;6152854;28;80652;-54
2024/03/30 12:38:19;;;;;;;55.58;8.60;;;26.40;31.90;;;;;;6139856;28;83173;-56
2024/03/30 12:41:19;;;;;;;50.50;9.77;;;26.30;31.90;;;;;;6162493;28;83738;-56
2024/03/30 12:44:20;;;;;;;58.95;10.20;;;26.30;32.30;;;;;;6161050;28;80735;-58
2024/03/30 12:47:20;;;;;;;59.63;9.77;;;26.20;32.10;;;;;;6152375;28;83781;-56
2024/03/30 12:50:21;;;;;;;59.40;9.75;;;26.20;32.20;;;;;;6150702;28;83353;-58
2024/03/30 12:53:21;;;;;;;60.05;11.27;;;26.20;32.20;;;;;;6165127;28;81012;-59
2024/03/30 12:56:22;;;;;;;60.35;10.18;;;26.20;31.80;;;;;;6151549;28;82845;-59
2024/03/30 12:59:22;;;;;;;66.00;10.43;;;26.20;32.10;;;;;;6151131;28;82690;-58
2024/03/30 13:02:23;;;;;;;65.55;10.45;;;26.20;32.30;;;;;;6153475;28;84289;-54
2024/03/30 13:05:23;;;;;;;73.05;10.70;;;26.20;31.60;;;;;;6154739;28;82895;-57
2024/03/30 13:08:24;;;;;;;60.05;9.25;;;26.20;31.70;;;;;;6160329;28;83529;-57
2024/03/30 13:11:25;;;;;;;69.65;10.15;;;26.30;32.00;;;;;;6152985;28;82819;-57
2024/03/30 13:14:26;;;;;;;63.00;9.48;;;26.30;33.00;;;;;;6152297;28;85360;-58
2024/03/30 13:17:26;;;;;;;60.10;9.95;;;26.30;33.30;;;;;;6151128;28;83216;-58
2024/03/30 13:20:29;;;;;;;71.15;10.60;;;26.30;33.60;;;;;;6154922;28;82212;-57
2024/03/30 13:23:30;;;;;;;66.63;11.23;;;26.30;33.80;;;;;;6151025;28;84000;-58
2024/03/30 13:26:30;;;;;;;61.35;11.38;;;26.30;33.50;;;;;;6150706;28;83683;-59
2024/03/30 13:29:35;;;;;;;85.97;11.85;;;26.30;33.40;;;;;;6160613;28;83212;-58
2024/03/30 13:32:35;;;;;;;77.68;12.35;;;26.10;32.50;;;;;;6148826;28;84023;-57
2024/03/30 13:35:38;;;;;;;72.65;12.05;;;26.10;32.70;;;;;;6150557;28;83225;-58
2024/03/30 13:38:39;;;;;;;71.22;11.15;;;25.90;31.80;;;;;;6157300;28;83589;-59
2024/03/30 13:41:39;;;;;;;58.72;9.63;;;25.80;32.20;;;;;;6147190;28;83127;-51
2024/03/30 13:44:40;;;;;;;60.97;10.45;;;25.90;32.90;;;;;;6157248;28;83341;-54
2024/03/30 13:47:40;;;;;;;78.63;12.27;;;25.90;32.30;;;;;;6150007;28;83954;-52
2024/03/30 13:50:41;;;;;;;65.68;9.77;;;25.90;32.30;;;;;;6148200;28;83310;-50
2024/03/30 13:53:41;;;;;;;62.55;10.48;;;25.90;32.40;;;;;;6152308;28;82827;-53
2024/03/30 13:56:42;;;;;;;64.82;10.00;;;25.90;32.70;;;;;;6148939;28;85281;-51
2024/03/30 13:59:42;;;;;;;73.47;10.98;;;25.90;33.00;;;;;;6155150;28;82735;-50
2024/03/30 14:02:43;;;;;;;65.38;10.93;;;25.90;33.30;;;;;;6148497;28;83890;-52
2024/03/30 14:05:44;;;;;;;75.45;11.35;;;25.80;33.50;;;;;;6152301;28;82972;-54
2024/03/30 14:08:44;;;;;;;56.20;10.30;;;25.80;33.70;;;;;;6154444;28;90755;-50
2024/03/30 14:11:46;;;;;;;68.65;10.75;;;25.80;34.00;;;;;;6154497;28;83940;-56
2024/03/30 14:14:46;;;;;;;57.17;9.30;;;25.80;34.40;;;;;;6139936;28;86363;-56
2024/03/30 14:17:48;;;;;;;59.08;10.32;;;25.80;34.80;;;;;;6156100;28;82836;-54
2024/03/30 14:20:49;;;;;;;60.20;10.32;;;25.80;34.70;;;;;;6155660;28;83048;-57
2024/03/30 14:23:49;;;;;;;78.18;11.38;;;25.80;36.40;;;;;;6145723;28;88291;-51
2024/03/30 14:26:50;;;;;;;49.70;9.40;;;25.80;35.70;;;;;;6153723;28;85370;-52
2024/03/30 14:29:51;;;;;;;72.18;10.82;;;25.70;35.80;;;;;;6150854;28;82709;-53
2024/03/30 14:32:51;;;;;;;75.20;11.15;;;25.70;35.90;;;;;;6147874;28;83452;-52
2024/03/30 14:35:52;;;;;;;58.30;10.02;;;25.70;35.50;;;;;;6162770;28;84137;-61
2024/03/30 14:38:52;;;;;;;71.78;10.02;;;25.70;36.60;;;;;;6162455;28;86254;-51
2024/03/30 14:41:53;;;;;;;63.00;9.73;;;25.70;36.30;;;;;;6156315;28;83883;-51
2024/03/30 14:44:53;;;;;;;65.57;11.38;;;25.70;36.00;;;;;;6141371;28;83120;-50
2024/03/30 14:47:54;;;;;;;58.40;10.32;;;25.70;36.50;;;;;;6144762;28;84988;-51
2024/03/30 14:50:54;;;;;;;63.08;11.25;;;25.70;37.10;;;;;;6149496;28;83900;-51
2024/03/30 14:53:55;;;;;;;63.75;9.88;;;25.70;37.80;;;;;;6151742;28;84756;-53
2024/03/30 14:56:55;;;;;;;58.63;9.50;;;25.70;37.40;;;;;;6156220;28;83294;-60
2024/03/30 14:59:56;;;;;;;64.32;10.18;;;25.70;37.70;;;;;;6153327;28;82595;-60
2024/03/30 15:02:57;;;;;;;57.95;10.35;;;25.70;37.90;;;;;;6152980;28;83725;-59
2024/03/30 15:05:58;;;;;;;66.20;9.82;;;25.70;37.50;;;;;;6150387;28;84304;-59
2024/03/30 15:08:58;;;;;;;63.67;10.63;;;25.70;36.90;;;;;;6148077;28;84129;-58
2024/03/30 15:11:59;;;;;;;44.97;9.30;;;25.60;37.50;;;;;;6151328;28;84560;-58
2024/03/30 15:14:59;;;;;;;67.40;11.23;;;25.70;37.80;;;;;;6155319;28;88776;-56
2024/03/30 15:18:00;;;;;;;54.47;10.23;;;25.70;37.60;;;;;;6148495;28;84053;-58
2024/03/30 15:21:00;;;;;;;54.50;10.77;;;25.60;37.40;;;;;;6129903;28;84212;-58
2024/03/30 15:24:01;;;;;;;64.63;10.55;;;25.60;37.80;;;;;;6148700;28;86056;-59
2024/03/30 15:27:01;;;;;;;67.75;11.48;;;25.60;37.60;;;;;;6155357;28;84130;-59
2024/03/30 15:33:21;;;;;;;56.92;11.25;;;25.60;37.60;;;;;;6155705;28;83567;-59
2024/03/30 15:36:21;;;;;;;49.40;10.10;;;25.60;37.80;;;;;;6152111;28;84467;-60